sensor_id;sensor_type;location;lat;lon;timestamp;P1;durP1;ratioP1;P2;durP2;ratioP2
10365;SDS011;5229;41.820;23.490;2022-12-07T00:01:27;2.73;;;2.50;;
10365;SDS011;5229;41.820;23.490;2022-12-07T00:03:56;3.53;;;2.23;;
10365;SDS011;5229;41.820;23.490;2022-12-07T00:06:29;4.00;;;2.27;;
10365;SDS011;5229;41.820;23.490;2022-12-07T00:08:57;3.83;;;2.37;;
10365;SDS011;5229;41.820;23.490;2022-12-07T00:11:24;4.23;;;2.43;;
10365;SDS011;5229;41.820;23.490;2022-12-07T00:13:54;3.73;;;2.07;;
10365;SDS011;5229;41.820;23.490;2022-12-07T00:16:22;2.83;;;2.30;;
10365;SDS011;5229;41.820;23.490;2022-12-07T00:18:51;4.07;;;2.23;;
10365;SDS011;5229;41.820;23.490;2022-12-07T00:21:18;2.53;;;1.67;;
10365;SDS011;5229;41.820;23.490;2022-12-07T00:23:47;5.53;;;1.93;;
10365;SDS011;5229;41.820;23.490;2022-12-07T00:26:16;3.70;;;2.37;;
10365;SDS011;5229;41.820;23.490;2022-12-07T00:28:44;4.57;;;2.20;;
10365;SDS011;5229;41.820;23.490;2022-12-07T00:31:14;3.93;;;2.10;;
10365;SDS011;5229;41.820;23.490;2022-12-07T00:33:42;5.93;;;2.07;;
10365;SDS011;5229;41.820;23.490;2022-12-07T00:36:10;3.13;;;1.87;;
10365;SDS011;5229;41.820;23.490;2022-12-07T00:38:39;3.87;;;2.10;;
10365;SDS011;5229;41.820;23.490;2022-12-07T00:41:06;3.33;;;2.10;;
10365;SDS011;5229;41.820;23.490;2022-12-07T00:43:35;4.07;;;2.67;;
10365;SDS011;5229;41.820;23.490;2022-12-07T00:46:02;5.37;;;2.20;;
10365;SDS011;5229;41.820;23.490;2022-12-07T00:48:31;4.57;;;1.87;;
10365;SDS011;5229;41.820;23.490;2022-12-07T00:50:57;2.77;;;2.10;;
10365;SDS011;5229;41.820;23.490;2022-12-07T00:53:25;4.63;;;2.20;;
10365;SDS011;5229;41.820;23.490;2022-12-07T00:55:52;3.03;;;2.10;;
10365;SDS011;5229;41.820;23.490;2022-12-07T00:58:20;4.40;;;2.20;;
10365;SDS011;5229;41.820;23.490;2022-12-07T01:00:47;5.73;;;3.20;;
10365;SDS011;5229;41.820;23.490;2022-12-07T01:03:14;5.77;;;2.30;;
10365;SDS011;5229;41.820;23.490;2022-12-07T01:05:49;3.63;;;1.93;;
10365;SDS011;5229;41.820;23.490;2022-12-07T01:08:17;4.03;;;2.50;;
10365;SDS011;5229;41.820;23.490;2022-12-07T01:10:44;1.80;;;1.70;;
10365;SDS011;5229;41.820;23.490;2022-12-07T01:13:11;5.67;;;1.90;;
10365;SDS011;5229;41.820;23.490;2022-12-07T01:15:39;7.40;;;2.10;;
10365;SDS011;5229;41.820;23.490;2022-12-07T01:18:06;4.90;;;1.70;;
10365;SDS011;5229;41.820;23.490;2022-12-07T01:20:33;6.40;;;2.03;;
10365;SDS011;5229;41.820;23.490;2022-12-07T01:23:01;2.97;;;1.90;;
10365;SDS011;5229;41.820;23.490;2022-12-07T01:25:28;2.77;;;2.07;;
10365;SDS011;5229;41.820;23.490;2022-12-07T01:27:55;4.23;;;2.10;;
10365;SDS011;5229;41.820;23.490;2022-12-07T01:30:22;2.37;;;1.77;;
10365;SDS011;5229;41.820;23.490;2022-12-07T01:32:48;5.07;;;1.63;;
10365;SDS011;5229;41.820;23.490;2022-12-07T01:35:15;3.47;;;1.93;;
10365;SDS011;5229;41.820;23.490;2022-12-07T01:37:42;4.20;;;1.60;;
10365;SDS011;5229;41.820;23.490;2022-12-07T01:40:11;2.67;;;1.87;;
10365;SDS011;5229;41.820;23.490;2022-12-07T01:42:38;2.80;;;2.00;;
10365;SDS011;5229;41.820;23.490;2022-12-07T01:45:33;3.77;;;2.47;;
10365;SDS011;5229;41.820;23.490;2022-12-07T01:48:04;3.97;;;1.80;;
10365;SDS011;5229;41.820;23.490;2022-12-07T01:50:32;2.07;;;1.63;;
10365;SDS011;5229;41.820;23.490;2022-12-07T01:53:00;4.63;;;1.83;;
10365;SDS011;5229;41.820;23.490;2022-12-07T01:55:31;3.20;;;1.90;;
10365;SDS011;5229;41.820;23.490;2022-12-07T01:57:58;4.13;;;2.20;;
10365;SDS011;5229;41.820;23.490;2022-12-07T02:00:25;1.63;;;1.53;;
10365;SDS011;5229;41.820;23.490;2022-12-07T02:02:53;1.90;;;1.70;;
10365;SDS011;5229;41.820;23.490;2022-12-07T02:05:22;2.90;;;1.87;;
10365;SDS011;5229;41.820;23.490;2022-12-07T02:07:50;2.47;;;2.00;;
10365;SDS011;5229;41.820;23.490;2022-12-07T02:10:21;3.57;;;2.00;;
10365;SDS011;5229;41.820;23.490;2022-12-07T02:12:52;2.33;;;1.43;;
10365;SDS011;5229;41.820;23.490;2022-12-07T02:15:28;4.37;;;1.83;;
10365;SDS011;5229;41.820;23.490;2022-12-07T02:18:05;3.03;;;1.67;;
10365;SDS011;5229;41.820;23.490;2022-12-07T02:20:36;3.43;;;1.80;;
10365;SDS011;5229;41.820;23.490;2022-12-07T02:23:18;7.33;;;2.17;;
10365;SDS011;5229;41.820;23.490;2022-12-07T02:26:10;3.17;;;2.00;;
10365;SDS011;5229;41.820;23.490;2022-12-07T02:29:07;6.23;;;2.10;;
10365;SDS011;5229;41.820;23.490;2022-12-07T02:31:42;1.97;;;1.87;;
10365;SDS011;5229;41.820;23.490;2022-12-07T02:34:18;3.50;;;1.97;;
10365;SDS011;5229;41.820;23.490;2022-12-07T02:36:52;2.90;;;1.90;;
10365;SDS011;5229;41.820;23.490;2022-12-07T02:39:25;2.57;;;1.87;;
10365;SDS011;5229;41.820;23.490;2022-12-07T02:41:58;2.90;;;1.87;;
10365;SDS011;5229;41.820;23.490;2022-12-07T02:44:31;2.63;;;1.90;;
10365;SDS011;5229;41.820;23.490;2022-12-07T02:47:00;5.30;;;1.97;;
10365;SDS011;5229;41.820;23.490;2022-12-07T02:49:31;2.83;;;2.33;;
10365;SDS011;5229;41.820;23.490;2022-12-07T02:51:58;2.77;;;1.73;;
10365;SDS011;5229;41.820;23.490;2022-12-07T02:54:25;2.23;;;1.73;;
10365;SDS011;5229;41.820;23.490;2022-12-07T02:56:52;3.53;;;1.90;;
10365;SDS011;5229;41.820;23.490;2022-12-07T02:59:26;2.43;;;2.07;;
10365;SDS011;5229;41.820;23.490;2022-12-07T03:02:05;2.60;;;1.87;;
10365;SDS011;5229;41.820;23.490;2022-12-07T03:04:43;4.07;;;2.30;;
10365;SDS011;5229;41.820;23.490;2022-12-07T03:07:21;2.53;;;2.20;;
10365;SDS011;5229;41.820;23.490;2022-12-07T03:09:57;2.33;;;2.13;;
10365;SDS011;5229;41.820;23.490;2022-12-07T03:12:29;2.50;;;1.97;;
10365;SDS011;5229;41.820;23.490;2022-12-07T03:15:05;3.47;;;2.10;;
10365;SDS011;5229;41.820;23.490;2022-12-07T03:17:38;5.33;;;2.30;;
10365;SDS011;5229;41.820;23.490;2022-12-07T03:20:09;2.03;;;1.80;;
10365;SDS011;5229;41.820;23.490;2022-12-07T03:22:39;2.47;;;1.80;;
10365;SDS011;5229;41.820;23.490;2022-12-07T03:25:10;4.17;;;1.93;;
10365;SDS011;5229;41.820;23.490;2022-12-07T03:27:41;2.30;;;2.10;;
10365;SDS011;5229;41.820;23.490;2022-12-07T03:30:14;3.10;;;2.37;;
10365;SDS011;5229;41.820;23.490;2022-12-07T03:32:44;3.83;;;2.57;;
10365;SDS011;5229;41.820;23.490;2022-12-07T03:35:16;3.20;;;2.40;;
10365;SDS011;5229;41.820;23.490;2022-12-07T03:37:48;3.13;;;2.40;;
10365;SDS011;5229;41.820;23.490;2022-12-07T03:40:19;3.23;;;2.20;;
10365;SDS011;5229;41.820;23.490;2022-12-07T03:42:51;4.53;;;2.27;;
10365;SDS011;5229;41.820;23.490;2022-12-07T03:45:22;7.50;;;2.70;;
10365;SDS011;5229;41.820;23.490;2022-12-07T03:47:58;4.00;;;2.57;;
10365;SDS011;5229;41.820;23.490;2022-12-07T03:50:31;3.23;;;2.17;;
10365;SDS011;5229;41.820;23.490;2022-12-07T03:53:04;2.20;;;2.00;;
10365;SDS011;5229;41.820;23.490;2022-12-07T03:55:37;3.80;;;2.37;;
10365;SDS011;5229;41.820;23.490;2022-12-07T03:58:09;5.80;;;2.50;;
10365;SDS011;5229;41.820;23.490;2022-12-07T04:00:40;2.43;;;2.23;;
10365;SDS011;5229;41.820;23.490;2022-12-07T04:03:08;3.30;;;2.37;;
10365;SDS011;5229;41.820;23.490;2022-12-07T04:05:34;2.60;;;2.03;;
10365;SDS011;5229;41.820;23.490;2022-12-07T04:08:02;5.17;;;2.00;;
10365;SDS011;5229;41.820;23.490;2022-12-07T04:10:29;2.57;;;1.93;;
10365;SDS011;5229;41.820;23.490;2022-12-07T04:12:56;4.10;;;2.53;;
10365;SDS011;5229;41.820;23.490;2022-12-07T04:15:23;3.57;;;2.40;;
10365;SDS011;5229;41.820;23.490;2022-12-07T04:17:51;5.10;;;2.50;;
10365;SDS011;5229;41.820;23.490;2022-12-07T04:20:19;3.03;;;2.27;;
10365;SDS011;5229;41.820;23.490;2022-12-07T04:22:46;3.40;;;1.80;;
10365;SDS011;5229;41.820;23.490;2022-12-07T04:25:13;6.10;;;2.40;;
10365;SDS011;5229;41.820;23.490;2022-12-07T04:27:39;3.47;;;2.63;;
10365;SDS011;5229;41.820;23.490;2022-12-07T04:30:07;3.07;;;2.30;;
10365;SDS011;5229;41.820;23.490;2022-12-07T04:32:34;4.30;;;2.20;;
10365;SDS011;5229;41.820;23.490;2022-12-07T04:35:03;2.30;;;2.10;;
10365;SDS011;5229;41.820;23.490;2022-12-07T04:37:30;3.03;;;2.60;;
10365;SDS011;5229;41.820;23.490;2022-12-07T04:39:57;2.90;;;2.17;;
10365;SDS011;5229;41.820;23.490;2022-12-07T04:42:24;3.40;;;2.20;;
10365;SDS011;5229;41.820;23.490;2022-12-07T04:44:51;3.07;;;2.13;;
10365;SDS011;5229;41.820;23.490;2022-12-07T04:47:18;3.97;;;2.77;;
10365;SDS011;5229;41.820;23.490;2022-12-07T04:49:45;2.60;;;2.30;;
10365;SDS011;5229;41.820;23.490;2022-12-07T04:52:13;4.10;;;2.80;;
10365;SDS011;5229;41.820;23.490;2022-12-07T04:54:40;3.67;;;2.43;;
10365;SDS011;5229;41.820;23.490;2022-12-07T04:57:07;2.60;;;2.33;;
10365;SDS011;5229;41.820;23.490;2022-12-07T04:59:33;3.53;;;2.17;;
10365;SDS011;5229;41.820;23.490;2022-12-07T05:02:00;4.63;;;2.33;;
10365;SDS011;5229;41.820;23.490;2022-12-07T05:04:27;3.83;;;2.17;;
10365;SDS011;5229;41.820;23.490;2022-12-07T05:06:54;2.60;;;2.03;;
10365;SDS011;5229;41.820;23.490;2022-12-07T05:09:22;2.20;;;2.00;;
10365;SDS011;5229;41.820;23.490;2022-12-07T05:11:49;2.30;;;1.97;;
10365;SDS011;5229;41.820;23.490;2022-12-07T05:14:16;4.67;;;2.23;;
10365;SDS011;5229;41.820;23.490;2022-12-07T05:16:45;4.07;;;2.47;;
10365;SDS011;5229;41.820;23.490;2022-12-07T05:19:14;5.83;;;3.00;;
10365;SDS011;5229;41.820;23.490;2022-12-07T05:21:41;4.07;;;2.47;;
10365;SDS011;5229;41.820;23.490;2022-12-07T05:24:09;2.43;;;2.17;;
10365;SDS011;5229;41.820;23.490;2022-12-07T05:26:39;2.67;;;2.07;;
10365;SDS011;5229;41.820;23.490;2022-12-07T05:29:06;3.70;;;2.43;;
10365;SDS011;5229;41.820;23.490;2022-12-07T05:31:33;3.40;;;2.67;;
10365;SDS011;5229;41.820;23.490;2022-12-07T05:34:00;4.80;;;2.70;;
10365;SDS011;5229;41.820;23.490;2022-12-07T05:36:28;3.33;;;2.43;;
10365;SDS011;5229;41.820;23.490;2022-12-07T05:38:56;3.90;;;2.60;;
10365;SDS011;5229;41.820;23.490;2022-12-07T05:41:23;2.60;;;2.13;;
10365;SDS011;5229;41.820;23.490;2022-12-07T05:44:09;7.90;;;2.40;;
10365;SDS011;5229;41.820;23.490;2022-12-07T05:46:36;3.00;;;2.67;;
10365;SDS011;5229;41.820;23.490;2022-12-07T05:49:02;5.37;;;2.90;;
10365;SDS011;5229;41.820;23.490;2022-12-07T05:51:29;4.73;;;2.67;;
10365;SDS011;5229;41.820;23.490;2022-12-07T05:53:56;6.03;;;2.23;;
10365;SDS011;5229;41.820;23.490;2022-12-07T05:56:23;5.27;;;2.63;;
10365;SDS011;5229;41.820;23.490;2022-12-07T05:58:51;4.20;;;2.20;;
10365;SDS011;5229;41.820;23.490;2022-12-07T06:01:37;3.97;;;2.43;;
10365;SDS011;5229;41.820;23.490;2022-12-07T06:04:04;4.17;;;2.77;;
10365;SDS011;5229;41.820;23.490;2022-12-07T06:06:30;3.90;;;2.60;;
10365;SDS011;5229;41.820;23.490;2022-12-07T06:08:57;2.93;;;2.43;;
10365;SDS011;5229;41.820;23.490;2022-12-07T06:11:24;5.17;;;2.70;;
10365;SDS011;5229;41.820;23.490;2022-12-07T06:14:09;3.60;;;2.60;;
10365;SDS011;5229;41.820;23.490;2022-12-07T06:16:37;3.43;;;2.10;;
10365;SDS011;5229;41.820;23.490;2022-12-07T06:19:03;3.17;;;2.40;;
10365;SDS011;5229;41.820;23.490;2022-12-07T06:21:30;2.30;;;1.97;;
10365;SDS011;5229;41.820;23.490;2022-12-07T06:23:57;2.73;;;2.13;;
10365;SDS011;5229;41.820;23.490;2022-12-07T06:26:24;2.20;;;2.00;;
10365;SDS011;5229;41.820;23.490;2022-12-07T06:28:51;4.40;;;2.07;;
10365;SDS011;5229;41.820;23.490;2022-12-07T06:31:17;3.23;;;2.13;;
10365;SDS011;5229;41.820;23.490;2022-12-07T06:33:46;2.27;;;2.07;;
10365;SDS011;5229;41.820;23.490;2022-12-07T06:36:12;3.57;;;2.37;;
10365;SDS011;5229;41.820;23.490;2022-12-07T06:38:39;3.27;;;2.43;;
10365;SDS011;5229;41.820;23.490;2022-12-07T06:41:06;3.53;;;2.10;;
10365;SDS011;5229;41.820;23.490;2022-12-07T06:43:33;2.30;;;2.10;;
10365;SDS011;5229;41.820;23.490;2022-12-07T06:46:00;4.97;;;2.53;;
10365;SDS011;5229;41.820;23.490;2022-12-07T06:48:27;2.83;;;2.37;;
10365;SDS011;5229;41.820;23.490;2022-12-07T06:50:55;4.97;;;2.40;;
10365;SDS011;5229;41.820;23.490;2022-12-07T06:53:22;4.20;;;2.37;;
10365;SDS011;5229;41.820;23.490;2022-12-07T06:55:49;3.43;;;2.63;;
10365;SDS011;5229;41.820;23.490;2022-12-07T06:58:17;4.67;;;2.70;;
10365;SDS011;5229;41.820;23.490;2022-12-07T07:00:44;2.93;;;2.30;;
10365;SDS011;5229;41.820;23.490;2022-12-07T07:03:11;2.60;;;2.00;;
10365;SDS011;5229;41.820;23.490;2022-12-07T07:05:38;5.13;;;2.27;;
10365;SDS011;5229;41.820;23.490;2022-12-07T07:08:06;2.87;;;2.20;;
10365;SDS011;5229;41.820;23.490;2022-12-07T07:10:33;2.80;;;1.73;;
10365;SDS011;5229;41.820;23.490;2022-12-07T07:13:01;4.37;;;2.47;;
10365;SDS011;5229;41.820;23.490;2022-12-07T07:15:28;2.60;;;2.20;;
10365;SDS011;5229;41.820;23.490;2022-12-07T07:17:55;2.70;;;1.97;;
10365;SDS011;5229;41.820;23.490;2022-12-07T07:20:22;2.67;;;2.20;;
10365;SDS011;5229;41.820;23.490;2022-12-07T07:22:48;2.90;;;2.60;;
10365;SDS011;5229;41.820;23.490;2022-12-07T07:25:17;4.17;;;2.30;;
10365;SDS011;5229;41.820;23.490;2022-12-07T07:27:44;3.53;;;2.47;;
10365;SDS011;5229;41.820;23.490;2022-12-07T07:30:10;3.03;;;2.10;;
10365;SDS011;5229;41.820;23.490;2022-12-07T07:32:38;3.87;;;1.97;;
10365;SDS011;5229;41.820;23.490;2022-12-07T07:35:05;4.33;;;2.00;;
10365;SDS011;5229;41.820;23.490;2022-12-07T07:37:32;4.90;;;2.50;;
10365;SDS011;5229;41.820;23.490;2022-12-07T07:39:59;5.27;;;2.30;;
10365;SDS011;5229;41.820;23.490;2022-12-07T07:42:27;6.53;;;2.30;;
10365;SDS011;5229;41.820;23.490;2022-12-07T07:44:54;2.90;;;2.20;;
10365;SDS011;5229;41.820;23.490;2022-12-07T07:47:21;2.73;;;1.97;;
10365;SDS011;5229;41.820;23.490;2022-12-07T07:49:48;2.73;;;1.73;;
10365;SDS011;5229;41.820;23.490;2022-12-07T07:52:14;33.93;;;24.07;;
10365;SDS011;5229;41.820;23.490;2022-12-07T07:54:41;44.03;;;30.07;;
10365;SDS011;5229;41.820;23.490;2022-12-07T07:57:08;36.30;;;25.13;;
10365;SDS011;5229;41.820;23.490;2022-12-07T07:59:36;38.20;;;26.33;;
10365;SDS011;5229;41.820;23.490;2022-12-07T08:02:03;80.73;;;49.80;;
10365;SDS011;5229;41.820;23.490;2022-12-07T08:04:30;67.93;;;44.00;;
10365;SDS011;5229;41.820;23.490;2022-12-07T08:06:57;73.57;;;43.47;;
10365;SDS011;5229;41.820;23.490;2022-12-07T08:09:23;42.63;;;27.67;;
10365;SDS011;5229;41.820;23.490;2022-12-07T08:11:50;50.13;;;31.77;;
10365;SDS011;5229;41.820;23.490;2022-12-07T08:14:17;34.37;;;22.70;;
10365;SDS011;5229;41.820;23.490;2022-12-07T08:16:45;41.40;;;24.77;;
10365;SDS011;5229;41.820;23.490;2022-12-07T08:19:12;39.10;;;26.07;;
10365;SDS011;5229;41.820;23.490;2022-12-07T08:21:39;45.20;;;30.40;;
10365;SDS011;5229;41.820;23.490;2022-12-07T08:24:06;59.23;;;40.53;;
10365;SDS011;5229;41.820;23.490;2022-12-07T08:26:33;58.67;;;41.07;;
10365;SDS011;5229;41.820;23.490;2022-12-07T08:29:00;42.47;;;31.13;;
10365;SDS011;5229;41.820;23.490;2022-12-07T08:31:26;35.77;;;23.53;;
10365;SDS011;5229;41.820;23.490;2022-12-07T08:33:55;29.37;;;21.57;;
10365;SDS011;5229;41.820;23.490;2022-12-07T08:36:22;35.17;;;24.73;;
10365;SDS011;5229;41.820;23.490;2022-12-07T08:38:49;37.80;;;27.50;;
10365;SDS011;5229;41.820;23.490;2022-12-07T08:41:17;39.37;;;27.80;;
10365;SDS011;5229;41.820;23.490;2022-12-07T08:43:44;43.40;;;31.10;;
10365;SDS011;5229;41.820;23.490;2022-12-07T08:46:11;41.67;;;29.87;;
10365;SDS011;5229;41.820;23.490;2022-12-07T08:48:49;40.83;;;28.57;;
10365;SDS011;5229;41.820;23.490;2022-12-07T08:51:23;37.90;;;27.70;;
10365;SDS011;5229;41.820;23.490;2022-12-07T08:53:50;36.73;;;27.33;;
10365;SDS011;5229;41.820;23.490;2022-12-07T08:56:18;43.00;;;30.13;;
10365;SDS011;5229;41.820;23.490;2022-12-07T08:58:46;40.57;;;27.97;;
10365;SDS011;5229;41.820;23.490;2022-12-07T09:01:14;39.20;;;24.87;;
10365;SDS011;5229;41.820;23.490;2022-12-07T09:03:41;36.13;;;24.93;;
10365;SDS011;5229;41.820;23.490;2022-12-07T09:06:07;30.30;;;21.60;;
10365;SDS011;5229;41.820;23.490;2022-12-07T09:08:36;26.60;;;19.90;;
10365;SDS011;5229;41.820;23.490;2022-12-07T09:11:07;26.53;;;20.57;;
10365;SDS011;5229;41.820;23.490;2022-12-07T09:13:33;28.80;;;20.60;;
10365;SDS011;5229;41.820;23.490;2022-12-07T09:16:00;33.67;;;21.93;;
10365;SDS011;5229;41.820;23.490;2022-12-07T09:18:27;31.93;;;22.30;;
10365;SDS011;5229;41.820;23.490;2022-12-07T09:20:54;18.70;;;13.57;;
10365;SDS011;5229;41.820;23.490;2022-12-07T09:23:22;24.30;;;16.70;;
10365;SDS011;5229;41.820;23.490;2022-12-07T09:25:50;23.13;;;16.53;;
10365;SDS011;5229;41.820;23.490;2022-12-07T09:28:17;27.80;;;18.47;;
10365;SDS011;5229;41.820;23.490;2022-12-07T09:30:45;26.30;;;17.30;;
10365;SDS011;5229;41.820;23.490;2022-12-07T09:33:13;38.13;;;23.70;;
10365;SDS011;5229;41.820;23.490;2022-12-07T09:35:43;38.57;;;25.30;;
10365;SDS011;5229;41.820;23.490;2022-12-07T09:38:10;32.37;;;24.43;;
10365;SDS011;5229;41.820;23.490;2022-12-07T09:40:38;30.80;;;21.70;;
10365;SDS011;5229;41.820;23.490;2022-12-07T09:43:10;26.87;;;18.27;;
10365;SDS011;5229;41.820;23.490;2022-12-07T09:45:39;30.83;;;21.27;;
10365;SDS011;5229;41.820;23.490;2022-12-07T09:48:09;33.37;;;24.13;;
10365;SDS011;5229;41.820;23.490;2022-12-07T09:50:44;29.97;;;21.53;;
10365;SDS011;5229;41.820;23.490;2022-12-07T09:53:13;32.47;;;23.97;;
10365;SDS011;5229;41.820;23.490;2022-12-07T09:55:43;26.30;;;20.30;;
10365;SDS011;5229;41.820;23.490;2022-12-07T09:58:13;25.70;;;17.90;;
10365;SDS011;5229;41.820;23.490;2022-12-07T10:00:46;39.53;;;23.87;;
10365;SDS011;5229;41.820;23.490;2022-12-07T10:03:12;27.93;;;19.13;;
10365;SDS011;5229;41.820;23.490;2022-12-07T10:05:40;31.03;;;21.60;;
10365;SDS011;5229;41.820;23.490;2022-12-07T10:08:10;26.37;;;19.60;;
10365;SDS011;5229;41.820;23.490;2022-12-07T10:10:38;30.20;;;21.77;;
10365;SDS011;5229;41.820;23.490;2022-12-07T10:13:05;31.40;;;21.60;;
10365;SDS011;5229;41.820;23.490;2022-12-07T10:15:42;33.67;;;22.37;;
10365;SDS011;5229;41.820;23.490;2022-12-07T10:18:21;33.03;;;20.40;;
10365;SDS011;5229;41.820;23.490;2022-12-07T10:21:04;28.43;;;19.20;;
10365;SDS011;5229;41.820;23.490;2022-12-07T10:23:38;28.23;;;18.33;;
10365;SDS011;5229;41.820;23.490;2022-12-07T10:26:27;33.77;;;20.63;;
10365;SDS011;5229;41.820;23.490;2022-12-07T10:28:57;34.87;;;21.03;;
10365;SDS011;5229;41.820;23.490;2022-12-07T10:31:28;24.33;;;15.90;;
10365;SDS011;5229;41.820;23.490;2022-12-07T10:33:56;20.20;;;14.40;;
10365;SDS011;5229;41.820;23.490;2022-12-07T10:36:25;21.57;;;10.60;;
10365;SDS011;5229;41.820;23.490;2022-12-07T10:38:58;9.60;;;7.27;;
10365;SDS011;5229;41.820;23.490;2022-12-07T10:41:27;6.80;;;5.23;;
10365;SDS011;5229;41.820;23.490;2022-12-07T10:43:54;9.43;;;5.07;;
10365;SDS011;5229;41.820;23.490;2022-12-07T10:46:40;6.20;;;4.77;;
10365;SDS011;5229;41.820;23.490;2022-12-07T10:52:25;6.97;;;4.50;;
10365;SDS011;5229;41.820;23.490;2022-12-07T10:55:08;6.60;;;4.50;;
10365;SDS011;5229;41.820;23.490;2022-12-07T10:57:46;6.70;;;4.53;;
10365;SDS011;5229;41.820;23.490;2022-12-07T11:00:22;8.73;;;5.30;;
10365;SDS011;5229;41.820;23.490;2022-12-07T11:02:56;6.60;;;4.30;;
10365;SDS011;5229;41.820;23.490;2022-12-07T11:05:38;4.67;;;4.10;;
10365;SDS011;5229;41.820;23.490;2022-12-07T11:08:13;6.20;;;4.20;;
10365;SDS011;5229;41.820;23.490;2022-12-07T11:10:49;4.07;;;3.43;;
10365;SDS011;5229;41.820;23.490;2022-12-07T11:13:25;8.33;;;3.90;;
10365;SDS011;5229;41.820;23.490;2022-12-07T11:19:01;4.80;;;3.50;;
10365;SDS011;5229;41.820;23.490;2022-12-07T11:21:45;10.20;;;4.47;;
10365;SDS011;5229;41.820;23.490;2022-12-07T11:24:23;6.87;;;3.93;;
10365;SDS011;5229;41.820;23.490;2022-12-07T11:32:52;3.30;;;2.80;;
10365;SDS011;5229;41.820;23.490;2022-12-07T11:35:34;3.90;;;2.83;;
10365;SDS011;5229;41.820;23.490;2022-12-07T11:38:08;7.30;;;3.50;;
10365;SDS011;5229;41.820;23.490;2022-12-07T11:40:40;6.83;;;3.67;;
10365;SDS011;5229;41.820;23.490;2022-12-07T11:43:13;7.53;;;6.30;;
10365;SDS011;5229;41.820;23.490;2022-12-07T11:45:46;5.47;;;4.20;;
10365;SDS011;5229;41.820;23.490;2022-12-07T11:48:20;10.13;;;3.50;;
10365;SDS011;5229;41.820;23.490;2022-12-07T11:50:52;3.67;;;3.17;;
10365;SDS011;5229;41.820;23.490;2022-12-07T11:53:25;4.83;;;3.60;;
10365;SDS011;5229;41.820;23.490;2022-12-07T11:55:56;3.87;;;3.00;;
10365;SDS011;5229;41.820;23.490;2022-12-07T11:58:35;4.33;;;3.33;;
10365;SDS011;5229;41.820;23.490;2022-12-07T12:01:14;4.27;;;3.00;;
10365;SDS011;5229;41.820;23.490;2022-12-07T12:03:50;3.43;;;2.70;;
10365;SDS011;5229;41.820;23.490;2022-12-07T12:06:21;6.90;;;3.80;;
10365;SDS011;5229;41.820;23.490;2022-12-07T12:08:50;3.67;;;3.00;;
10365;SDS011;5229;41.820;23.490;2022-12-07T12:11:26;7.63;;;3.93;;
10365;SDS011;5229;41.820;23.490;2022-12-07T12:14:13;5.43;;;4.00;;
10365;SDS011;5229;41.820;23.490;2022-12-07T12:17:07;6.20;;;4.13;;
10365;SDS011;5229;41.820;23.490;2022-12-07T12:19:59;6.07;;;3.63;;
10365;SDS011;5229;41.820;23.490;2022-12-07T12:22:34;7.87;;;4.23;;
10365;SDS011;5229;41.820;23.490;2022-12-07T12:25:04;5.40;;;4.33;;
10365;SDS011;5229;41.820;23.490;2022-12-07T12:27:33;7.37;;;5.00;;
10365;SDS011;5229;41.820;23.490;2022-12-07T12:30:04;8.33;;;5.50;;
10365;SDS011;5229;41.820;23.490;2022-12-07T12:32:35;6.50;;;5.40;;
10365;SDS011;5229;41.820;23.490;2022-12-07T12:35:20;11.67;;;6.80;;
10365;SDS011;5229;41.820;23.490;2022-12-07T12:37:55;9.87;;;6.13;;
10365;SDS011;5229;41.820;23.490;2022-12-07T12:40:59;10.87;;;4.20;;
10365;SDS011;5229;41.820;23.490;2022-12-07T12:58:35;10.70;;;5.30;;
10365;SDS011;5229;41.820;23.490;2022-12-07T13:07:13;8.23;;;4.43;;
10365;SDS011;5229;41.820;23.490;2022-12-07T13:10:00;5.07;;;4.00;;
10365;SDS011;5229;41.820;23.490;2022-12-07T13:12:29;4.97;;;4.07;;
10365;SDS011;5229;41.820;23.490;2022-12-07T13:14:58;4.70;;;4.03;;
10365;SDS011;5229;41.820;23.490;2022-12-07T13:20:44;6.43;;;4.87;;
10365;SDS011;5229;41.820;23.490;2022-12-07T13:23:22;6.80;;;4.53;;
10365;SDS011;5229;41.820;23.490;2022-12-07T13:25:54;6.27;;;4.13;;
10365;SDS011;5229;41.820;23.490;2022-12-07T13:28:26;6.53;;;4.10;;
10365;SDS011;5229;41.820;23.490;2022-12-07T13:31:13;4.40;;;3.70;;
10365;SDS011;5229;41.820;23.490;2022-12-07T13:33:45;7.07;;;3.90;;
10365;SDS011;5229;41.820;23.490;2022-12-07T13:36:16;6.13;;;4.47;;
10365;SDS011;5229;41.820;23.490;2022-12-07T13:38:51;10.20;;;5.80;;
10365;SDS011;5229;41.820;23.490;2022-12-07T13:41:21;7.93;;;5.20;;
10365;SDS011;5229;41.820;23.490;2022-12-07T13:43:50;9.17;;;5.83;;
10365;SDS011;5229;41.820;23.490;2022-12-07T13:46:22;9.50;;;6.37;;
10365;SDS011;5229;41.820;23.490;2022-12-07T13:48:56;10.77;;;5.83;;
10365;SDS011;5229;41.820;23.490;2022-12-07T13:51:24;7.60;;;5.33;;
10365;SDS011;5229;41.820;23.490;2022-12-07T13:53:52;8.03;;;5.57;;
10365;SDS011;5229;41.820;23.490;2022-12-07T13:56:21;8.00;;;6.03;;
10365;SDS011;5229;41.820;23.490;2022-12-07T13:58:52;8.77;;;6.30;;
10365;SDS011;5229;41.820;23.490;2022-12-07T14:01:19;6.60;;;5.57;;
10365;SDS011;5229;41.820;23.490;2022-12-07T14:03:47;6.93;;;5.53;;
10365;SDS011;5229;41.820;23.490;2022-12-07T14:06:19;8.37;;;5.27;;
10365;SDS011;5229;41.820;23.490;2022-12-07T14:09:07;6.70;;;4.60;;
10365;SDS011;5229;41.820;23.490;2022-12-07T14:11:35;4.70;;;4.10;;
10365;SDS011;5229;41.820;23.490;2022-12-07T14:14:04;6.47;;;4.80;;
10365;SDS011;5229;41.820;23.490;2022-12-07T14:16:33;6.10;;;4.80;;
10365;SDS011;5229;41.820;23.490;2022-12-07T14:19:02;7.03;;;4.70;;
10365;SDS011;5229;41.820;23.490;2022-12-07T14:21:31;6.67;;;4.33;;
10365;SDS011;5229;41.820;23.490;2022-12-07T14:24:07;6.87;;;4.50;;
10365;SDS011;5229;41.820;23.490;2022-12-07T14:26:36;6.03;;;4.07;;
10365;SDS011;5229;41.820;23.490;2022-12-07T14:31:58;4.23;;;3.30;;
10365;SDS011;5229;41.820;23.490;2022-12-07T14:34:41;5.97;;;3.50;;
10365;SDS011;5229;41.820;23.490;2022-12-07T14:37:08;4.27;;;3.43;;
10365;SDS011;5229;41.820;23.490;2022-12-07T14:39:36;3.90;;;3.30;;
10365;SDS011;5229;41.820;23.490;2022-12-07T14:42:03;4.90;;;3.40;;
10365;SDS011;5229;41.820;23.490;2022-12-07T14:44:30;4.90;;;2.73;;
10365;SDS011;5229;41.820;23.490;2022-12-07T14:46:58;5.80;;;3.50;;
10365;SDS011;5229;41.820;23.490;2022-12-07T14:49:25;3.30;;;2.47;;
10365;SDS011;5229;41.820;23.490;2022-12-07T14:51:51;3.17;;;2.60;;
10365;SDS011;5229;41.820;23.490;2022-12-07T14:54:19;4.50;;;3.00;;
10365;SDS011;5229;41.820;23.490;2022-12-07T14:56:46;4.90;;;2.97;;
10365;SDS011;5229;41.820;23.490;2022-12-07T14:59:17;3.77;;;2.60;;
10365;SDS011;5229;41.820;23.490;2022-12-07T15:01:44;3.50;;;3.00;;
10365;SDS011;5229;41.820;23.490;2022-12-07T15:04:13;3.70;;;2.57;;
10365;SDS011;5229;41.820;23.490;2022-12-07T15:06:40;4.20;;;3.00;;
10365;SDS011;5229;41.820;23.490;2022-12-07T15:09:09;3.03;;;2.40;;
10365;SDS011;5229;41.820;23.490;2022-12-07T15:11:36;3.17;;;2.43;;
10365;SDS011;5229;41.820;23.490;2022-12-07T15:14:03;2.90;;;2.50;;
10365;SDS011;5229;41.820;23.490;2022-12-07T15:16:38;3.20;;;2.17;;
10365;SDS011;5229;41.820;23.490;2022-12-07T15:19:09;3.10;;;2.60;;
10365;SDS011;5229;41.820;23.490;2022-12-07T15:21:41;3.43;;;2.10;;
10365;SDS011;5229;41.820;23.490;2022-12-07T15:24:09;3.20;;;2.47;;
10365;SDS011;5229;41.820;23.490;2022-12-07T15:26:36;2.40;;;2.20;;
10365;SDS011;5229;41.820;23.490;2022-12-07T15:29:04;6.97;;;2.13;;
10365;SDS011;5229;41.820;23.490;2022-12-07T15:31:32;2.67;;;2.30;;
10365;SDS011;5229;41.820;23.490;2022-12-07T15:33:59;2.60;;;2.27;;
10365;SDS011;5229;41.820;23.490;2022-12-07T15:36:27;2.70;;;2.50;;
10365;SDS011;5229;41.820;23.490;2022-12-07T15:38:56;3.10;;;2.20;;
10365;SDS011;5229;41.820;23.490;2022-12-07T15:41:23;4.53;;;2.10;;